Time;durP1;ratioP1;P1;durP2;ratioP2;P2;SDS_P1;SDS_P2;PMS_P1;PMS_P2;Temp;Humidity;BMP_temperature;BMP_pressure;BME280_temperature;BME280_humidity;BME280_pressure;Samples;Min_cycle;Max_cycle;Signal;HPM_P1;HPM_P2
2021/03/20 00:01:32;;;;;;;;;;;22.00;36.30;;;;;;1595679;73;1167;-57
2021/03/20 00:03:34;;;;;;;;;;;22.00;36.30;;;;;;1588887;73;1941;-58
2021/03/20 00:05:36;;;;;;;;;;;22.00;36.50;;;;;;1593578;73;750;-58
2021/03/20 00:07:38;;;;;;;;;;;22.10;36.30;;;;;;1580654;73;769;-58
2021/03/20 00:09:40;;;;;;;;;;;22.00;36.40;;;;;;1596823;73;672;-58
2021/03/20 00:11:42;;;;;;;;;;;22.10;36.60;;;;;;1590444;73;1155;-58
2021/03/20 00:13:44;;;;;;;;;;;22.10;36.90;;;;;;1591231;73;751;-58
2021/03/20 00:15:46;;;;;;;;;;;22.10;37.00;;;;;;1594533;73;789;-58
2021/03/20 00:17:48;;;;;;;;;;;22.00;37.10;;;;;;1599602;73;756;-58
2021/03/20 00:19:50;;;;;;;;;;;22.10;37.30;;;;;;1579301;73;746;-57
2021/03/20 00:21:52;;;;;;;;;;;22.00;37.30;;;;;;1590127;73;1203;-56
2021/03/20 00:23:53;;;;;;;;;;;22.10;37.40;;;;;;1598027;73;1937;-58
2021/03/20 00:25:55;;;;;;;;;;;22.10;37.30;;;;;;1592352;73;733;-58
2021/03/20 00:27:57;;;;;;;;;;;22.00;37.10;;;;;;1579247;73;811;-58
2021/03/20 00:29:59;;;;;;;;;;;22.00;37.20;;;;;;1576802;73;801;-57
2021/03/20 00:32:01;;;;;;;;;;;22.10;37.10;;;;;;1583719;73;1146;-59
2021/03/20 00:34:03;;;;;;;;;;;22.10;37.10;;;;;;1600969;73;652;-58
2021/03/20 00:36:05;;;;;;;;;;;22.10;37.10;;;;;;1595165;73;798;-58
2021/03/20 00:38:07;;;;;;;;;;;22.10;36.80;;;;;;1582494;73;743;-57
2021/03/20 00:40:10;;;;;;;;;;;22.10;36.80;;;;;;1585729;73;775;-58
2021/03/20 00:42:12;;;;;;;;;;;22.10;36.90;;;;;;1599037;73;1147;-58
2021/03/20 00:44:14;;;;;;;;;;;22.10;36.90;;;;;;1582688;73;1937;-57
2021/03/20 00:46:16;;;;;;;;;;;22.10;36.90;;;;;;1586784;73;807;-56
2021/03/20 00:48:19;;;;;;;;;;;22.10;36.90;;;;;;1587760;73;762;-58
2021/03/20 00:50:22;;;;;;;;;;;22.10;36.90;;;;;;1593830;73;796;-59
2021/03/20 00:52:23;;;;;;;;;;;22.10;36.80;;;;;;1584030;73;1181;-59
2021/03/20 00:54:25;;;;;;;;;;;22.10;37.00;;;;;;1583202;73;795;-58
2021/03/20 00:56:27;;;;;;;;;;;22.10;36.90;;;;;;1590692;73;751;-58
2021/03/20 00:58:34;;;;;;;;;;;22.10;37.10;;;;;;1597282;73;727;-58
2021/03/20 01:00:36;;;;;;;;;;;22.10;36.80;;;;;;1583739;73;675;-57
2021/03/20 01:02:38;;;;;;;;;;;22.10;37.00;;;;;;1577065;73;1939;-57
2021/03/20 01:04:40;;;;;;;;;;;22.10;36.80;;;;;;1586082;73;825;-58
2021/03/20 01:06:42;;;;;;;;;;;22.10;36.90;;;;;;1584414;73;757;-59
2021/03/20 01:08:44;;;;;;;;;;;22.10;37.00;;;;;;1573377;73;814;-58
2021/03/20 01:10:46;;;;;;;;;;;22.10;36.80;;;;;;1584492;73;786;-58
2021/03/20 01:12:47;;;;;;;;;;;22.10;36.80;;;;;;1585440;73;1174;-56
2021/03/20 01:14:49;;;;;;;;;;;22.10;36.80;;;;;;1585385;73;878;-57
2021/03/20 01:16:51;;;;;;;;;;;22.10;36.90;;;;;;1577142;73;813;-57
2021/03/20 01:18:53;;;;;;;;;;;22.10;37.00;;;;;;1581591;73;747;-56
2021/03/20 01:20:55;;;;;;;;;;;22.10;36.90;;;;;;1583242;73;745;-59
2021/03/20 01:22:57;;;;;;;;;;;22.10;36.80;;;;;;1604327;73;1927;-59
2021/03/20 01:24:59;;;;;;;;;;;22.10;36.70;;;;;;1589393;73;685;-59
2021/03/20 01:27:01;;;;;;;;;;;22.10;36.80;;;;;;1589248;73;744;-59
2021/03/20 01:29:03;;;;;;;;;;;22.20;36.60;;;;;;1596194;73;737;-58
2021/03/20 01:31:05;;;;;;;;;;;22.20;36.50;;;;;;1577710;73;745;-58
2021/03/20 01:33:07;;;;;;;;;;;22.10;36.50;;;;;;1586652;73;1172;-58
2021/03/20 01:35:09;;;;;;;;;;;22.10;36.60;;;;;;1572074;73;815;-57
2021/03/20 01:37:10;;;;;;;;;;;22.20;36.40;;;;;;1591244;73;801;-58
2021/03/20 01:39:12;;;;;;;;;;;22.20;36.50;;;;;;1585202;73;784;-58
2021/03/20 01:41:16;;;;;;;;;;;22.20;36.50;;;;;;1591400;73;779;-58
2021/03/20 01:43:19;;;;;;;;;;;22.10;36.50;;;;;;1587302;73;1941;-58
2021/03/20 01:45:22;;;;;;;;;;;22.10;36.70;;;;;;1582032;73;741;-58
2021/03/20 01:47:24;;;;;;;;;;;22.10;36.50;;;;;;1587335;73;662;-58
2021/03/20 01:49:28;;;;;;;;;;;22.20;36.30;;;;;;1576381;73;745;-59
2021/03/20 01:51:30;;;;;;;;;;;22.30;36.40;;;;;;1585375;73;1194;-57
2021/03/20 01:53:36;;;;;;;;;;;22.30;36.30;;;;;;1587693;73;778;-58
2021/03/20 01:55:38;;;;;;;;;;;22.30;36.30;;;;;;1573235;73;725;-58
2021/03/20 01:57:40;;;;;;;;;;;22.30;36.30;;;;;;1582692;73;770;-57
2021/03/20 01:59:42;;;;;;;;;;;22.20;36.20;;;;;;1603588;73;747;-59
2021/03/20 02:01:44;;;;;;;;;;;22.20;36.30;;;;;;1577942;73;1162;-58
2021/03/20 02:03:46;;;;;;;;;;;22.10;36.30;;;;;;1581640;73;1938;-57
2021/03/20 02:05:48;;;;;;;;;;;22.20;36.40;;;;;;1587062;73;746;-57
2021/03/20 02:07:50;;;;;;;;;;;22.10;36.40;;;;;;1591259;73;754;-59
2021/03/20 02:09:52;;;;;;;;;;;22.10;36.40;;;;;;1577778;73;724;-58
2021/03/20 02:12:10;;;;;;;;;;;22.10;36.50;;;;;;1581905;73;1196;-58
2021/03/20 02:14:30;;;;;;;;;;;22.10;36.40;;;;;;1583394;73;1573;-58
2021/03/20 02:16:37;;;;;;;;;;;22.10;36.40;;;;;;1592028;73;793;-58
2021/03/20 02:18:48;;;;;;;;;;;22.20;36.40;;;;;;1590545;73;1129;-58
2021/03/20 02:20:51;;;;;;;;;;;22.10;36.30;;;;;;1585012;73;763;-58
2021/03/20 02:22:55;;;;;;;;;;;22.10;36.40;;;;;;1603246;73;1239;-58
2021/03/20 02:25:14;;;;;;;;;;;22.10;36.50;;;;;;1584256;73;1948;-59
2021/03/20 02:27:33;;;;;;;;;;;22.10;36.70;;;;;;1579827;73;793;-58
2021/03/20 02:29:52;;;;;;;;;;;22.10;36.60;;;;;;1594987;73;1078;-58
2021/03/20 02:32:12;;;;;;;;;;;22.10;36.80;;;;;;1603687;73;1211;-59
2021/03/20 02:34:22;;;;;;;;;;;22.00;36.60;;;;;;1582863;73;791;-59
2021/03/20 02:36:28;;;;;;;;;;;22.10;36.80;;;;;;1584520;73;1086;-59
2021/03/20 02:38:34;;;;;;;;;;;22.10;36.80;;;;;;1584247;73;760;-56
2021/03/20 02:40:38;;;;;;;;;;;22.10;36.70;;;;;;1582637;73;739;-56
2021/03/20 02:42:41;;;;;;;;;;;22.10;36.70;;;;;;1586032;73;1114;-56
2021/03/20 02:44:53;;;;;;;;;;;22.10;36.70;;;;;;1587376;73;1937;-57
2021/03/20 02:47:02;;;;;;;;;;;22.10;36.70;;;;;;1579562;73;756;-58
2021/03/20 02:49:23;;;;;;;;;;;22.10;36.60;;;;;;1582383;73;633;-58
2021/03/20 02:51:43;;;;;;;;;;;22.10;36.70;;;;;;1591322;73;1166;-57
2021/03/20 02:53:47;;;;;;;;;;;22.10;36.80;;;;;;1580717;73;681;-56
2021/03/20 02:55:49;;;;;;;;;;;22.10;36.80;;;;;;1576713;73;1429;-59
2021/03/20 02:57:56;;;;;;;;;;;22.20;36.80;;;;;;1578149;73;763;-57
2021/03/20 02:59:58;;;;;;;;;;;22.20;36.80;;;;;;1564638;74;735;-58
2021/03/20 03:02:01;;;;;;;;;;;22.10;36.70;;;;;;1596968;73;1115;-58
2021/03/20 03:04:03;;;;;;;;;;;22.10;36.60;;;;;;1578343;73;1952;-59
2021/03/20 03:06:08;;;;;;;;;;;22.10;36.60;;;;;;1598212;73;765;-59
2021/03/20 03:08:11;;;;;;;;;;;22.20;36.60;;;;;;1590301;73;752;-57
2021/03/20 03:10:14;;;;;;;;;;;22.20;36.70;;;;;;1589205;73;787;-56
2021/03/20 03:12:24;;;;;;;;;;;22.30;36.80;;;;;;1585557;73;1165;-57
2021/03/20 03:14:36;;;;;;;;;;;22.30;36.80;;;;;;1592403;73;739;-57
2021/03/20 03:16:40;;;;;;;;;;;22.20;36.80;;;;;;1589375;73;760;-58
2021/03/20 03:18:43;;;;;;;;;;;22.20;36.80;;;;;;1595955;73;1485;-58
2021/03/20 03:20:46;;;;;;;;;;;22.30;36.80;;;;;;1570760;73;730;-58
2021/03/20 03:22:49;;;;;;;;;;;22.20;36.70;;;;;;1596461;73;1210;-59
2021/03/20 03:24:53;;;;;;;;;;;22.20;36.60;;;;;;1579577;73;1949;-58
2021/03/20 03:26:58;;;;;;;;;;;22.30;36.70;;;;;;1595978;73;772;-57
2021/03/20 03:29:05;;;;;;;;;;;22.30;36.80;;;;;;1585117;73;781;-57
2021/03/20 03:31:08;;;;;;;;;;;22.20;36.70;;;;;;1590394;73;1834;-57
2021/03/20 03:33:12;;;;;;;;;;;22.20;36.80;;;;;;1593388;73;1170;-59
2021/03/20 03:35:24;;;;;;;;;;;22.30;36.90;;;;;;1579647;72;215480;-67
2021/03/20 03:37:28;;;;;;;;;;;22.20;36.80;;;;;;1574181;74;764;-68
2021/03/20 03:39:35;;;;;;;;;;;22.20;36.80;;;;;;1571532;74;821;-69
2021/03/20 03:41:37;;;;;;;;;;;22.30;37.00;;;;;;1565907;74;760;-67
2021/03/20 03:43:39;;;;;;;;;;;22.20;37.00;;;;;;1576122;74;1932;-69
2021/03/20 03:45:42;;;;;;;;;;;22.30;37.10;;;;;;1578304;73;1262;-69
2021/03/20 03:47:45;;;;;;;;;;;22.30;37.10;;;;;;1578864;74;744;-70
2021/03/20 03:49:46;;;;;;;;;;;22.30;37.30;;;;;;1566062;74;782;-68
2021/03/20 03:51:48;;;;;;;;;;;22.30;37.20;;;;;;1577875;74;749;-69
2021/03/20 03:53:51;;;;;;;;;;;22.40;37.20;;;;;;1574113;74;780;-72
2021/03/20 03:55:54;;;;;;;;;;;22.40;37.10;;;;;;1560221;74;1176;-70
2021/03/20 03:58:14;;;;;;;;;;;22.40;37.10;;;;;;1565289;74;746;-67
2021/03/20 04:00:17;;;;;;;;;;;22.40;37.10;;;;;;1577391;74;788;-66
2021/03/20 04:02:26;;;;;;;;;;;22.40;37.10;;;;;;1566384;74;755;-69
2021/03/20 04:04:33;;;;;;;;;;;22.40;37.00;;;;;;1574543;73;1946;-68
2021/03/20 04:06:42;;;;;;;;;;;22.50;37.10;;;;;;1569767;74;1897;-68
2021/03/20 04:08:48;;;;;;;;;;;22.50;37.10;;;;;;1565076;74;1087;-68
2021/03/20 04:11:00;;;;;;;;;;;22.50;37.00;;;;;;1565392;74;790;-67
2021/03/20 04:13:06;;;;;;;;;;;22.50;37.00;;;;;;1569856;74;757;-68
2021/03/20 04:15:09;;;;;;;;;;;22.50;37.00;;;;;;1564345;73;1716;-68
2021/03/20 04:17:12;;;;;;;;;;;22.60;36.90;;;;;;1569784;74;762;-68
2021/03/20 04:19:16;;;;;;;;;;;22.60;36.80;;;;;;1564454;74;799;-68
2021/03/20 04:21:19;;;;;;;;;;;22.60;36.80;;;;;;1576137;74;1188;-69
2021/03/20 04:23:23;;;;;;;;;;;22.60;36.80;;;;;;1571926;74;740;-69
2021/03/20 04:25:26;;;;;;;;;;;22.60;36.70;;;;;;1573448;74;1930;-68
2021/03/20 04:27:29;;;;;;;;;;;22.60;36.90;;;;;;1574768;74;797;-68
2021/03/20 04:29:33;;;;;;;;;;;22.70;37.00;;;;;;1565922;74;761;-68
2021/03/20 04:31:35;;;;;;;;;;;22.60;36.90;;;;;;1578189;74;748;-67
2021/03/20 04:33:38;;;;;;;;;;;22.70;37.00;;;;;;1575306;74;757;-67
2021/03/20 04:35:42;;;;;;;;;;;22.70;36.90;;;;;;1563565;74;1171;-63
2021/03/20 04:37:45;;;;;;;;;;;22.60;36.90;;;;;;1565347;74;887;-67
2021/03/20 04:39:48;;;;;;;;;;;22.70;37.00;;;;;;1570654;74;779;-66
2021/03/20 04:41:50;;;;;;;;;;;22.70;36.80;;;;;;1572031;74;721;-67
2021/03/20 04:43:52;;;;;;;;;;;22.70;36.80;;;;;;1572138;74;1925;-67
2021/03/20 04:46:03;;;;;;;;;;;22.70;36.70;;;;;;1577249;74;1173;-67
2021/03/20 04:48:13;;;;;;;;;;;22.70;36.80;;;;;;1565855;74;740;-68
2021/03/20 04:50:16;;;;;;;;;;;22.80;36.70;;;;;;1570375;74;965;-68
2021/03/20 04:52:22;;;;;;;;;;;22.80;36.50;;;;;;1563868;74;663;-69
2021/03/20 04:54:24;;;;;;;;;;;22.80;36.80;;;;;;1539879;74;1010;-69
2021/03/20 04:56:26;;;;;;;;;;;22.70;36.60;;;;;;1569125;74;738;-68
2021/03/20 04:58:44;;;;;;;;;;;22.80;36.50;;;;;;1572610;74;798;-71
2021/03/20 05:00:47;;;;;;;;;;;22.80;36.50;;;;;;1574247;74;777;-68
2021/03/20 05:02:50;;;;;;;;;;;22.80;36.60;;;;;;1562428;74;1047;-69
2021/03/20 05:04:53;;;;;;;;;;;22.90;36.70;;;;;;1568061;73;1946;-69
2021/03/20 05:06:54;;;;;;;;;;;22.80;36.40;;;;;;1572526;74;745;-66
2021/03/20 05:09:04;;;;;;;;;;;22.80;36.30;;;;;;1567171;74;756;-69
2021/03/20 05:11:23;;;;;;;;;;;22.80;36.40;;;;;;1566354;74;825;-68
2021/03/20 05:13:26;;;;;;;;;;;22.80;36.40;;;;;;1565352;74;696;-68
2021/03/20 05:15:29;;;;;;;;;;;22.80;36.50;;;;;;1564934;73;1217;-69
2021/03/20 05:17:32;;;;;;;;;;;22.90;36.70;;;;;;1571608;74;740;-69
2021/03/20 05:19:34;;;;;;;;;;;22.90;36.60;;;;;;1568215;74;750;-69
2021/03/20 05:21:37;;;;;;;;;;;22.90;36.60;;;;;;1571069;74;742;-66
2021/03/20 05:23:39;;;;;;;;;;;22.90;36.60;;;;;;1571045;74;725;-69
2021/03/20 05:25:41;;;;;;;;;;;22.90;36.50;;;;;;1566326;74;1947;-69
2021/03/20 05:27:43;;;;;;;;;;;22.80;36.50;;;;;;1565044;74;730;-69
2021/03/20 05:29:45;;;;;;;;;;;22.90;36.60;;;;;;1566249;74;883;-69
2021/03/20 05:31:47;;;;;;;;;;;22.90;36.50;;;;;;1565362;74;695;-70
2021/03/20 05:33:49;;;;;;;;;;;22.90;36.40;;;;;;1565081;74;811;-70
2021/03/20 05:35:51;;;;;;;;;;;22.90;36.40;;;;;;1569796;74;1151;-69
2021/03/20 05:37:53;;;;;;;;;;;22.90;36.40;;;;;;1575610;74;862;-67
2021/03/20 05:39:54;;;;;;;;;;;22.90;36.40;;;;;;1564426;74;752;-68
2021/03/20 05:42:16;;;;;;;;;;;22.90;36.40;;;;;;1566528;74;682;-68
2021/03/20 05:44:20;;;;;;;;;;;22.90;36.30;;;;;;1567587;74;1938;-68
2021/03/20 05:46:29;;;;;;;;;;;22.90;36.30;;;;;;1575091;74;1186;-68
2021/03/20 05:48:32;;;;;;;;;;;22.90;36.30;;;;;;1576522;74;1119;-68
2021/03/20 05:50:38;;;;;;;;;;;22.80;36.20;;;;;;1559795;74;754;-68
2021/03/20 05:52:42;;;;;;;;;;;22.90;36.30;;;;;;1577187;74;732;-68
2021/03/20 05:55:03;;;;;;;;;;;22.90;36.30;;;;;;1565321;74;1132;-68
2021/03/20 05:57:13;;;;;;;;;;;22.90;36.30;;;;;;1568777;74;801;-66
2021/03/20 05:59:19;;;;;;;;;;;22.90;36.30;;;;;;1571190;74;2005;-68
2021/03/20 06:01:25;;;;;;;;;;;22.90;36.40;;;;;;1563770;74;1162;-68
2021/03/20 06:03:32;;;;;;;;;;;22.90;36.50;;;;;;1564971;74;748;-68
2021/03/20 06:05:47;;;;;;;;;;;22.90;36.70;;;;;;1569817;74;1928;-67
2021/03/20 06:08:05;;;;;;;;;;;22.90;36.50;;;;;;1568320;74;1179;-68
2021/03/20 06:10:20;;;;;;;;;;;23.00;36.50;;;;;;1566342;74;985;-67
2021/03/20 06:12:27;;;;;;;;;;;22.90;36.80;;;;;;1568447;74;752;-67
2021/03/20 06:14:47;;;;;;;;;;;22.90;36.60;;;;;;1572917;74;1211;-67
2021/03/20 06:16:50;;;;;;;;;;;22.90;36.80;;;;;;1576297;74;776;-69
2021/03/20 06:19:00;;;;;;;;;;;22.90;36.80;;;;;;1564890;74;2026;-68
2021/03/20 06:21:03;;;;;;;;;;;23.00;36.70;;;;;;1562547;74;754;-68
2021/03/20 06:23:10;;;;;;;;;;;22.90;36.90;;;;;;1568409;74;759;-68
2021/03/20 06:25:19;;;;;;;;;;;23.00;37.00;;;;;;1576044;74;1947;-68
2021/03/20 06:27:22;;;;;;;;;;;23.00;37.10;;;;;;1562693;74;749;-67
2021/03/20 06:29:28;;;;;;;;;;;23.00;36.80;;;;;;1569498;74;779;-68
2021/03/20 06:31:37;;;;;;;;;;;23.00;37.10;;;;;;1558841;74;1967;-69
2021/03/20 06:33:40;;;;;;;;;;;23.10;36.80;;;;;;1572113;74;807;-67
2021/03/20 06:35:47;;;;;;;;;;;23.00;36.40;;;;;;1579175;73;1161;-68
2021/03/20 06:37:50;;;;;;;;;;;23.00;36.50;;;;;;1581941;74;783;-68
2021/03/20 06:39:53;;;;;;;;;;;23.10;36.60;;;;;;1566859;74;798;-67
2021/03/20 06:41:57;;;;;;;;;;;23.10;36.70;;;;;;1561280;74;1123;-68
2021/03/20 06:44:00;;;;;;;;;;;23.10;36.70;;;;;;1561148;74;747;-69
2021/03/20 06:46:02;;;;;;;;;;;23.10;36.80;;;;;;1575589;74;1944;-67
2021/03/20 06:48:08;;;;;;;;;;;23.10;36.80;;;;;;1592024;74;803;-67
2021/03/20 06:50:20;;;;;;;;;;;23.10;36.80;;;;;;1560800;74;1144;-69
2021/03/20 06:52:22;;;;;;;;;;;23.10;36.80;;;;;;1557823;74;838;-68
2021/03/20 06:54:24;;;;;;;;;;;23.10;36.80;;;;;;1559150;74;808;-67
2021/03/20 06:56:27;;;;;;;;;;;23.10;36.80;;;;;;1566739;74;796;-67
2021/03/20 06:58:30;;;;;;;;;;;23.10;36.80;;;;;;1562876;74;796;-68
2021/03/20 07:00:33;;;;;;;;;;;23.20;36.80;;;;;;1574801;74;844;-67
2021/03/20 07:02:37;;;;;;;;;;;23.20;36.80;;;;;;1568918;74;737;-68
2021/03/20 07:04:40;;;;;;;;;;;23.20;36.90;;;;;;1563097;74;1935;-66
2021/03/20 07:07:00;;;;;;;;;;;23.10;36.80;;;;;;1574611;74;754;-69
2021/03/20 07:09:03;;;;;;;;;;;23.20;36.80;;;;;;1556868;74;767;-69
2021/03/20 07:11:05;;;;;;;;;;;23.20;36.80;;;;;;1563555;74;745;-67
2021/03/20 07:13:11;;;;;;;;;;;23.20;36.80;;;;;;1568671;74;760;-69
2021/03/20 07:15:14;;;;;;;;;;;23.20;37.00;;;;;;1563304;74;1216;-69
2021/03/20 07:17:25;;;;;;;;;;;23.20;36.90;;;;;;1573591;74;1715;-67
2021/03/20 07:19:27;;;;;;;;;;;23.20;36.90;;;;;;1570744;74;790;-67
2021/03/20 07:21:30;;;;;;;;;;;23.20;37.20;;;;;;1563808;74;751;-68
2021/03/20 07:23:32;;;;;;;;;;;23.20;37.20;;;;;;1563277;74;744;-68
2021/03/20 07:25:36;;;;;;;;;;;23.20;37.40;;;;;;1582431;74;1944;-68
2021/03/20 07:27:37;;;;;;;;;;;23.30;37.30;;;;;;1555758;74;980;-67
2021/03/20 07:29:44;;;;;;;;;;;23.30;37.40;;;;;;1565969;74;768;-66
2021/03/20 07:31:53;;;;;;;;;;;23.30;37.40;;;;;;1576231;74;740;-67
2021/03/20 07:33:55;;;;;;;;;;;23.30;37.50;;;;;;1563078;74;1546;-65
2021/03/20 07:35:58;;;;;;;;;;;23.40;36.30;;;;;;1560317;74;1155;-65
2021/03/20 07:38:11;;;;;;;;;;;23.30;35.30;;;;;;1558638;74;1054;-65
2021/03/20 07:40:14;;;;;;;;;;;23.20;34.90;;;;;;1568383;74;1125;-65
2021/03/20 07:42:29;;;;;;;;;;;23.20;34.20;;;;;;1570992;74;730;-66
2021/03/20 07:44:33;;;;;;;;;;;23.20;34.10;;;;;;1575291;74;1197;-66
2021/03/20 07:46:35;;;;;;;;;;;23.20;34.20;;;;;;1562380;74;1945;-67
2021/03/20 07:48:36;;;;;;;;;;;23.20;34.30;;;;;;1581165;74;803;-66
2021/03/20 07:50:39;;;;;;;;;;;23.20;34.60;;;;;;1558899;74;789;-67
2021/03/20 07:52:41;;;;;;;;;;;23.20;34.50;;;;;;1564504;74;784;-66
2021/03/20 07:54:42;;;;;;;;;;;23.20;34.30;;;;;;1563997;74;1166;-68
2021/03/20 07:56:44;;;;;;;;;;;23.20;34.10;;;;;;1567135;74;804;-66
2021/03/20 07:58:48;;;;;;;;;;;23.20;34.20;;;;;;1566763;74;781;-64
2021/03/20 08:00:51;;;;;;;;;;;23.20;34.20;;;;;;1568773;74;1513;-66
2021/03/20 08:02:53;;;;;;;;;;;23.20;34.30;;;;;;1569435;74;1801;-66
2021/03/20 08:04:57;;;;;;;;;;;23.20;34.30;;;;;;1574220;74;1944;-68
2021/03/20 08:06:59;;;;;;;;;;;23.20;34.30;;;;;;1566942;74;742;-64
2021/03/20 08:09:10;;;;;;;;;;;23.10;34.10;;;;;;1571917;74;731;-65
2021/03/20 08:11:26;;;;;;;;;;;23.20;34.10;;;;;;1572065;74;776;-65
2021/03/20 08:13:39;;;;;;;;;;;23.10;34.40;;;;;;1565939;74;785;-68
2021/03/20 08:15:44;;;;;;;;;;;23.10;34.30;;;;;;1566079;74;1179;-67
2021/03/20 08:17:46;;;;;;;;;;;23.20;34.00;;;;;;1567122;74;664;-66
2021/03/20 08:19:48;;;;;;;;;;;23.10;33.90;;;;;;1573389;74;753;-68
2021/03/20 08:22:09;;;;;;;;;;;23.10;33.60;;;;;;1574817;74;702;-66
2021/03/20 08:24:29;;;;;;;;;;;23.10;33.80;;;;;;1562644;74;1074;-64
2021/03/20 08:26:36;;;;;;;;;;;23.10;33.80;;;;;;1552348;74;1940;-71
2021/03/20 08:28:39;;;;;;;;;;;23.20;34.00;;;;;;1568783;74;1535;-66
2021/03/20 08:30:46;;;;;;;;;;;23.10;33.90;;;;;;1565072;74;743;-67
2021/03/20 08:33:04;;;;;;;;;;;23.20;33.60;;;;;;1562868;74;1140;-66
2021/03/20 08:35:17;;;;;;;;;;;23.10;33.40;;;;;;1560688;74;1180;-67
2021/03/20 08:37:20;;;;;;;;;;;23.10;33.30;;;;;;1571163;74;752;-66
2021/03/20 08:39:26;;;;;;;;;;;23.10;33.10;;;;;;1566578;74;1115;-67
2021/03/20 08:41:30;;;;;;;;;;;23.10;33.10;;;;;;1562737;74;1080;-66
2021/03/20 08:43:45;;;;;;;;;;;23.10;33.00;;;;;;1565002;74;754;-67
2021/03/20 08:45:55;;;;;;;;;;;23.00;32.80;;;;;;1558031;74;1960;-66
2021/03/20 08:48:10;;;;;;;;;;;23.00;32.70;;;;;;1561946;74;732;-63
2021/03/20 08:50:17;;;;;;;;;;;23.10;32.90;;;;;;1567774;74;744;-67
2021/03/20 08:52:25;;;;;;;;;;;23.00;32.70;;;;;;1552324;74;720;-66
2021/03/20 08:54:35;;;;;;;;;;;23.00;32.70;;;;;;1570342;74;1151;-66
2021/03/20 08:56:38;;;;;;;;;;;23.00;32.60;;;;;;1562830;74;739;-67
2021/03/20 08:58:45;;;;;;;;;;;23.00;32.60;;;;;;1563683;74;1601;-67
2021/03/20 09:00:57;;;;;;;;;;;23.00;32.70;;;;;;1559100;74;823;-67
2021/03/20 09:03:01;;;;;;;;;;;23.00;32.60;;;;;;1571708;74;757;-66
2021/03/20 09:05:11;;;;;;;;;;;22.90;32.60;;;;;;1568117;74;1159;-66
2021/03/20 09:07:15;;;;;;;;;;;23.00;32.60;;;;;;1574867;74;785;-66
2021/03/20 09:09:18;;;;;;;;;;;22.90;32.60;;;;;;1561887;74;1553;-64
2021/03/20 09:11:23;;;;;;;;;;;23.00;32.50;;;;;;1580121;74;1033;-65
2021/03/20 09:13:29;;;;;;;;;;;22.90;32.50;;;;;;1566681;74;728;-67
2021/03/20 09:15:31;;;;;;;;;;;23.00;32.50;;;;;;1563800;74;1485;-65
2021/03/20 09:17:34;;;;;;;;;;;23.00;32.60;;;;;;1571650;74;822;-65
2021/03/20 09:19:38;;;;;;;;;;;22.90;32.50;;;;;;1554961;74;723;-66
2021/03/20 09:21:40;;;;;;;;;;;22.90;32.50;;;;;;1564804;74;833;-65
2021/03/20 09:23:45;;;;;;;;;;;23.00;32.60;;;;;;1572323;74;709;-66
2021/03/20 09:25:48;;;;;;;;;;;23.00;32.50;;;;;;1565182;74;1940;-66
2021/03/20 09:28:03;;;;;;;;;;;22.90;32.60;;;;;;1550689;76;796;-65
2021/03/20 09:30:10;;;;;;;;;;;22.90;32.60;;;;;;1581228;74;768;-66
2021/03/20 09:32:13;;;;;;;;;;;23.00;32.50;;;;;;1565954;74;936;-66
2021/03/20 09:34:19;;;;;;;;;;;22.90;32.40;;;;;;1564135;74;803;-66
2021/03/20 09:36:22;;;;;;;;;;;22.90;32.50;;;;;;1591649;73;2728;-66
2021/03/20 09:38:38;;;;;;;;;;;22.90;32.50;;;;;;1583609;73;837;-66
2021/03/20 09:40:46;;;;;;;;;;;22.90;32.50;;;;;;1597106;73;780;-67
2021/03/20 09:42:47;;;;;;;;;;;22.90;32.40;;;;;;1594763;73;1120;-66
2021/03/20 09:44:49;;;;;;;;;;;22.90;32.50;;;;;;1600601;73;1270;-68
2021/03/20 09:46:51;;;;;;;;;;;23.00;32.40;;;;;;1619582;72;1963;-66
2021/03/20 09:48:53;;;;;;;;;;;23.00;32.40;;;;;;1609140;72;795;-67
2021/03/20 09:50:55;;;;;;;;;;;22.90;32.50;;;;;;1604936;72;743;-68
2021/03/20 09:53:11;;;;;;;;;;;22.90;32.40;;;;;;1602633;72;743;-64
2021/03/20 09:55:32;;;;;;;;;;;23.00;32.80;;;;;;1611343;72;1194;-64
2021/03/20 09:57:36;;;;;;;;;;;23.10;33.20;;;;;;1622250;72;752;-67
2021/03/20 09:59:39;;;;;;;;;;;23.20;32.90;;;;;;1615552;72;719;-68
2021/03/20 10:01:44;;;;;;;;;;;23.20;32.70;;;;;;1610238;72;765;-66
2021/03/20 10:03:48;;;;;;;;;;;23.40;32.50;;;;;;1622286;72;758;-67
2021/03/20 10:05:50;;;;;;;;;;;23.40;32.40;;;;;;1613288;72;1948;-66
2021/03/20 10:08:01;;;;;;;;;;;23.40;32.10;;;;;;1592542;73;1152;-65
2021/03/20 10:10:14;;;;;;;;;;;23.50;31.70;;;;;;1606062;72;759;-66
2021/03/20 10:12:17;;;;;;;;;;;23.50;31.70;;;;;;1621989;72;774;-64
2021/03/20 10:14:25;;;;;;;;;;;23.50;31.60;;;;;;1609667;72;740;-66
2021/03/20 10:16:29;;;;;;;;;;;23.50;31.60;;;;;;1605987;72;1213;-71
2021/03/20 10:18:31;;;;;;;;;;;23.50;31.40;;;;;;1619068;72;752;-68
2021/03/20 10:20:38;;;;;;;;;;;23.50;31.40;;;;;;1619048;72;769;-68
2021/03/20 10:22:50;;;;;;;;;;;23.40;31.30;;;;;;1615331;72;702;-66
2021/03/20 10:24:52;;;;;;;;;;;23.40;31.40;;;;;;1603742;72;1132;-67
2021/03/20 10:27:00;;;;;;;;;;;23.40;31.50;;;;;;1627381;72;1935;-68
2021/03/20 10:29:10;;;;;;;;;;;23.40;31.60;;;;;;1614098;72;663;-66
2021/03/20 10:31:12;;;;;;;;;;;23.30;31.50;;;;;;1621764;72;1117;-69
2021/03/20 10:33:15;;;;;;;;;;;23.40;31.60;;;;;;1617160;72;984;-67
2021/03/20 10:35:17;;;;;;;;;;;23.40;31.50;;;;;;1619161;72;1216;-67
2021/03/20 10:37:19;;;;;;;;;;;23.40;31.50;;;;;;1611547;72;796;-65
2021/03/20 10:39:22;;;;;;;;;;;23.40;31.60;;;;;;1614474;72;732;-67
2021/03/20 10:41:34;;;;;;;;;;;23.40;31.50;;;;;;1602599;72;760;-69
2021/03/20 10:43:38;;;;;;;;;;;23.40;31.60;;;;;;1613665;72;1689;-67
2021/03/20 10:45:40;;;;;;;;;;;23.40;31.50;;;;;;1605774;72;1230;-64
2021/03/20 10:47:43;;;;;;;;;;;23.40;31.60;;;;;;1620439;72;749;-67
2021/03/20 10:49:46;;;;;;;;;;;23.40;31.50;;;;;;1611466;72;779;-65
2021/03/20 10:51:52;;;;;;;;;;;23.40;31.20;;;;;;1617906;72;706;-65
2021/03/20 10:53:54;;;;;;;;;;;23.30;31.30;;;;;;1612368;72;691;-68
2021/03/20 10:55:57;;;;;;;;;;;23.40;31.30;;;;;;1624826;71;1187;-67
2021/03/20 10:57:59;;;;;;;;;;;23.40;31.30;;;;;;1605123;72;689;-67
2021/03/20 11:00:01;;;;;;;;;;;23.50;31.30;;;;;;1610505;72;700;-68
2021/03/20 11:02:21;;;;;;;;;;;23.50;31.30;;;;;;1615512;72;732;-68
2021/03/20 11:04:27;;;;;;;;;;;23.50;31.20;;;;;;1601849;72;731;-66
2021/03/20 11:06:28;;;;;;;;;;;23.50;31.30;;;;;;1608560;72;1931;-67
2021/03/20 11:08:30;;;;;;;;;;;23.50;31.30;;;;;;1606313;72;715;-67
2021/03/20 11:10:36;;;;;;;;;;;23.60;31.20;;;;;;1614493;72;711;-69
2021/03/20 11:12:38;;;;;;;;;;;23.50;31.10;;;;;;1606135;72;738;-69
2021/03/20 11:14:51;;;;;;;;;;;23.60;30.20;;;;;;1604128;72;760;-66
2021/03/20 11:16:54;;;;;;;;;;;23.50;29.90;;;;;;1606729;72;634;-69
2021/03/20 11:18:58;;;;;;;;;;;23.50;29.70;;;;;;1605282;72;1055;-67
2021/03/20 11:20:59;;;;;;;;;;;23.50;29.80;;;;;;1568094;72;1205;-67
2021/03/20 11:23:01;;;;;;;;;;;23.50;30.10;;;;;;1604350;72;741;-67
2021/03/20 11:25:08;;;;;;;;;;;23.50;30.20;;;;;;1611414;72;1164;-67
2021/03/20 11:27:20;;;;;;;;;;;23.50;30.40;;;;;;1604444;73;1918;-67
2021/03/20 11:29:26;;;;;;;;;;;23.50;30.50;;;;;;1606550;72;795;-67
2021/03/20 11:31:28;;;;;;;;;;;23.50;30.60;;;;;;1607943;72;752;-67
2021/03/20 11:33:31;;;;;;;;;;;23.50;30.70;;;;;;1609116;72;747;-67
2021/03/20 11:35:34;;;;;;;;;;;23.40;30.70;;;;;;1608320;72;1122;-66
2021/03/20 11:37:36;;;;;;;;;;;23.40;30.80;;;;;;1602140;72;962;-64
2021/03/20 11:39:38;;;;;;;;;;;23.40;30.90;;;;;;1605522;72;762;-67
2021/03/20 11:41:42;;;;;;;;;;;23.40;31.00;;;;;;1618088;72;806;-68
2021/03/20 11:43:45;;;;;;;;;;;23.40;31.10;;;;;;1616134;72;757;-67
2021/03/20 11:45:47;;;;;;;;;;;23.40;31.20;;;;;;1616369;72;1185;-67
2021/03/20 11:47:49;;;;;;;;;;;23.30;31.30;;;;;;1629652;72;1954;-67
2021/03/20 11:49:52;;;;;;;;;;;23.40;31.30;;;;;;1616343;72;757;-67
2021/03/20 11:51:54;;;;;;;;;;;23.40;31.30;;;;;;1619380;72;781;-67
2021/03/20 11:53:58;;;;;;;;;;;23.30;31.30;;;;;;1624094;72;747;-66
2021/03/20 11:56:00;;;;;;;;;;;23.40;31.30;;;;;;1630085;71;1159;-66
2021/03/20 11:58:03;;;;;;;;;;;23.50;31.50;;;;;;1630357;72;768;-67
2021/03/20 12:00:23;;;;;;;;;;;23.50;31.40;;;;;;1624898;72;625;-65
2021/03/20 12:02:26;;;;;;;;;;;23.50;31.50;;;;;;1609596;72;744;-66
2021/03/20 12:04:30;;;;;;;;;;;23.40;31.30;;;;;;1622186;72;744;-66
2021/03/20 12:06:31;;;;;;;;;;;23.50;31.40;;;;;;1622196;71;1943;-67
2021/03/20 12:08:35;;;;;;;;;;;23.50;31.40;;;;;;1618595;72;754;-69
2021/03/20 12:10:36;;;;;;;;;;;23.50;31.30;;;;;;1620072;72;768;-66
2021/03/20 12:12:48;;;;;;;;;;;23.50;31.30;;;;;;1615179;72;771;-66
2021/03/20 12:14:50;;;;;;;;;;;23.50;31.30;;;;;;1601817;72;1161;-65
2021/03/20 12:16:52;;;;;;;;;;;23.50;31.30;;;;;;1608071;72;785;-66
2021/03/20 12:19:04;;;;;;;;;;;23.40;31.20;;;;;;1584144;73;1140;-66
2021/03/20 12:21:06;;;;;;;;;;;23.40;31.20;;;;;;1565371;73;1093;-66
2021/03/20 12:23:13;;;;;;;;;;;23.50;31.40;;;;;;1613565;72;746;-67
2021/03/20 12:25:16;;;;;;;;;;;23.50;31.30;;;;;;1601061;72;1140;-67
2021/03/20 12:27:29;;;;;;;;;;;23.40;31.30;;;;;;1605099;72;1939;-67